Time;durP1;ratioP1;P1;durP2;ratioP2;P2;SDS_P1;SDS_P2;PMS_P1;PMS_P2;Temp;Humidity;BMP_temperature;BMP_pressure;BME280_temperature;BME280_humidity;BME280_pressure;Samples;Min_cycle;Max_cycle;Signal;HPM_P1;HPM_P2
2023/08/13 00:02:58;;;;;;;;;;;;;;;;;;6209244;28;19980;-74
2023/08/13 00:05:58;;;;;;;;;;;;;;;;;;6201690;28;19918;-74
2023/08/13 00:08:58;;;;;;;;;;;;;;;;;;6213621;28;20583;-72
2023/08/13 00:11:59;;;;;;;;;;;;;;;;;;6215762;28;20347;-74
2023/08/13 00:14:59;;;;;;;;;;;;;;;;;;6182435;28;20107;-72
2023/08/13 00:17:59;;;;;;;;;;;;;;;;;;6213662;28;19916;-73
2023/08/13 00:20:59;;;;;;;;;;;;;;;;;;6201637;28;19909;-73
2023/08/13 00:23:59;;;;;;;;;;;;;;;;;;6216870;28;19910;-73
2023/08/13 00:26:59;;;;;;;;;;;;;;;;;;6212876;28;19920;-73
2023/08/13 00:29:59;;;;;;;;;;;;;;;;;;6219127;28;20007;-73
2023/08/13 00:32:59;;;;;;;;;;;;;;;;;;6179420;28;19910;-73
2023/08/13 00:36:00;;;;;;;;;;;;;;;;;;6207029;28;19941;-73
2023/08/13 00:39:00;;;;;;;;;;;;;;;;;;6218425;28;20020;-73
2023/08/13 00:42:00;;;;;;;;;;;;;;;;;;6216697;28;19910;-73
2023/08/13 00:45:00;;;;;;;;;;;;;;;;;;6206316;28;19972;-73
2023/08/13 00:48:00;;;;;;;;;;;;;;;;;;6201996;28;19975;-73
2023/08/13 00:51:00;;;;;;;;;;;;;;;;;;6205814;28;19920;-73
2023/08/13 00:54:00;;;;;;;;;;;;;;;;;;6217053;28;19910;-73
2023/08/13 00:57:00;;;;;;;;;;;;;;;;;;6213768;28;19909;-72
2023/08/13 01:00:01;;;;;;;;;;;;;;;;;;6203904;28;19922;-72
2023/08/13 01:03:01;;;;;;;;;;;;;;;;;;6206570;28;19909;-73
2023/08/13 01:06:01;;;;;;;;;;;;;;;;;;6207802;28;20362;-72
2023/08/13 01:09:01;;;;;;;;;;;;;;;;;;6201847;28;19949;-74
2023/08/13 01:12:01;;;;;;;;;;;;;;;;;;6197162;28;19955;-74
2023/08/13 01:15:02;;;;;;;;;;;;;;;;;;6195358;28;19909;-73
2023/08/13 01:18:02;;;;;;;;;;;;;;;;;;6202858;28;20295;-73
2023/08/13 01:21:02;;;;;;;;;;;;;;;;;;6209929;28;19913;-73
2023/08/13 01:24:02;;;;;;;;;;;;;;;;;;6197576;28;19979;-78
2023/08/13 01:27:06;;;;;;;;;;;;;;;;;;6195756;28;19913;-73
2023/08/13 01:30:06;;;;;;;;;;;;;;;;;;6196248;28;19913;-73
2023/08/13 01:33:06;;;;;;;;;;;;;;;;;;6200089;28;19960;-73
2023/08/13 01:36:06;;;;;;;;;;;;;;;;;;6217308;28;20007;-73
2023/08/13 01:39:06;;;;;;;;;;;;;;;;;;6198184;28;20236;-73
2023/08/13 01:42:09;;;;;;;;;;;;;;;;;;6196212;28;19912;-74
2023/08/13 01:45:10;;;;;;;;;;;;;;;;;;6211041;28;20389;-74
2023/08/13 01:48:10;;;;;;;;;;;;;;;;;;6215724;28;19910;-74
2023/08/13 01:51:10;;;;;;;;;;;;;;;;;;6210245;28;19913;-74
2023/08/13 01:54:10;;;;;;;;;;;;;;;;;;6199213;28;19953;-74
2023/08/13 01:57:10;;;;;;;;;;;;;;;;;;6204679;28;19910;-73
2023/08/13 02:00:12;;;;;;;;;;;;;;;;;;6179971;28;20304;-74
2023/08/13 02:03:12;;;;;;;;;;;;;;;;;;6167177;28;19915;-75
2023/08/13 02:06:12;;;;;;;;;;;;;;;;;;6177121;28;19925;-78
2023/08/13 02:09:12;;;;;;;;;;;;;;;;;;6169411;28;19918;-73
2023/08/13 02:12:12;;;;;;;;;;;;;;;;;;6177776;28;19976;-73
2023/08/13 02:15:12;;;;;;;;;;;;;;;;;;6172018;28;19910;-75
2023/08/13 02:18:13;;;;;;;;;;;;;;;;;;6177544;28;19964;-74
2023/08/13 02:21:13;;;;;;;;;;;;;;;;;;6166671;28;20595;-75
2023/08/13 02:24:13;;;;;;;;;;;;;;;;;;6147666;28;19950;-74
2023/08/13 02:27:13;;;;;;;;;;;;;;;;;;6162416;28;20261;-74
2023/08/13 02:30:13;;;;;;;;;;;;;;;;;;6153033;28;19980;-75
2023/08/13 02:33:13;;;;;;;;;;;;;;;;;;6152969;28;20248;-73
2023/08/13 02:36:13;;;;;;;;;;;;;;;;;;6151171;28;19914;-73
2023/08/13 02:39:13;;;;;;;;;;;;;;;;;;6157662;28;20000;-73
2023/08/13 02:42:14;;;;;;;;;;;;;;;;;;6154192;28;20289;-75
2023/08/13 02:45:14;;;;;;;;;;;;;;;;;;6152978;28;20677;-73
2023/08/13 02:48:14;;;;;;;;;;;;;;;;;;6155160;28;19957;-75
2023/08/13 02:51:14;;;;;;;;;;;;;;;;;;6152223;28;19973;-73
2023/08/13 02:54:14;;;;;;;;;;;;;;;;;;6159302;28;19910;-75
2023/08/13 02:57:14;;;;;;;;;;;;;;;;;;6153870;28;19914;-73
2023/08/13 03:00:14;;;;;;;;;;;;;;;;;;6181791;28;19929;-73
2023/08/13 03:03:14;;;;;;;;;;;;;;;;;;6163309;28;19985;-74
2023/08/13 03:06:15;;;;;;;;;;;;;;;;;;6196598;28;20356;-74
2023/08/13 03:09:15;;;;;;;;;;;;;;;;;;6196817;28;19914;-74
2023/08/13 03:12:15;;;;;;;;;;;;;;;;;;6181052;28;19905;-74
2023/08/13 03:15:15;;;;;;;;;;;;;;;;;;6182378;28;19910;-75
2023/08/13 03:18:15;;;;;;;;;;;;;;;;;;6174393;28;20092;-75
2023/08/13 03:21:15;;;;;;;;;;;;;;;;;;6177986;28;19918;-75
2023/08/13 03:24:15;;;;;;;;;;;;;;;;;;6181533;28;19913;-75
2023/08/13 03:27:15;;;;;;;;;;;;;;;;;;6182682;28;19928;-75
2023/08/13 03:30:15;;;;;;;;;;;;;;;;;;6178309;28;19936;-74
2023/08/13 03:33:16;;;;;;;;;;;;;;;;;;6177213;28;19920;-74
2023/08/13 03:36:16;;;;;;;;;;;;;;;;;;6182422;28;19910;-73
2023/08/13 03:39:16;;;;;;;;;;;;;;;;;;6184700;28;19918;-73
2023/08/13 03:42:16;;;;;;;;;;;;;;;;;;6177674;28;19922;-74
2023/08/13 03:45:16;;;;;;;;;;;;;;;;;;6197479;28;19916;-70
2023/08/13 03:48:16;;;;;;;;;;;;;;;;;;6190598;28;19924;-69
2023/08/13 03:51:16;;;;;;;;;;;;;;;;;;6179064;28;19925;-67
2023/08/13 03:54:17;;;;;;;;;;;;;;;;;;6188738;28;19910;-67
2023/08/13 03:57:17;;;;;;;;;;;;;;;;;;6200751;28;20044;-67
2023/08/13 04:00:17;;;;;;;;;;;;;;;;;;6184369;28;19924;-67
2023/08/13 04:03:17;;;;;;;;;;;;;;;;;;6215822;28;19913;-67
2023/08/13 04:06:17;;;;;;;;;;;;;;;;;;6221941;28;19964;-67
2023/08/13 04:09:17;;;;;;;;;;;;;;;;;;6212079;28;20382;-67
2023/08/13 04:12:17;;;;;;;;;;;;;;;;;;6202609;28;19929;-68
2023/08/13 04:15:17;;;;;;;;;;;;;;;;;;6214805;28;19921;-67
2023/08/13 04:18:18;;;;;;;;;;;;;;;;;;6222059;28;19968;-67
2023/08/13 04:21:18;;;;;;;;;;;;;;;;;;6197886;28;19985;-67
2023/08/13 04:24:18;;;;;;;;;;;;;;;;;;6202069;28;20376;-68
2023/08/13 04:27:18;;;;;;;;;;;;;;;;;;6202563;28;19910;-67
2023/08/13 04:30:19;;;;;;;;;;;;;;;;;;6186763;28;20388;-68
2023/08/13 04:33:19;;;;;;;;;;;;;;;;;;6199934;28;20005;-67
2023/08/13 04:36:19;;;;;;;;;;;;;;;;;;6201495;28;19909;-67
2023/08/13 04:39:19;;;;;;;;;;;;;;;;;;6185529;28;19921;-67
2023/08/13 04:42:19;;;;;;;;;;;;;;;;;;6185496;28;19910;-67
2023/08/13 04:45:19;;;;;;;;;;;;;;;;;;6196977;28;19917;-72
2023/08/13 04:48:19;;;;;;;;;;;;;;;;;;6201862;28;19910;-66
2023/08/13 04:51:20;;;;;;;;;;;;;;;;;;6192102;28;21762;-67
2023/08/13 04:54:20;;;;;;;;;;;;;;;;;;6188359;28;19926;-67
2023/08/13 04:57:20;;;;;;;;;;;;;;;;;;6187742;28;19967;-67
2023/08/13 05:00:20;;;;;;;;;;;;;;;;;;6184757;28;20405;-67
2023/08/13 05:03:20;;;;;;;;;;;;;;;;;;6197441;28;19916;-67
2023/08/13 05:06:20;;;;;;;;;;;;;;;;;;6198478;28;19906;-68
2023/08/13 05:09:20;;;;;;;;;;;;;;;;;;6192056;28;20253;-68
2023/08/13 05:12:21;;;;;;;;;;;;;;;;;;6201684;28;19913;-67
2023/08/13 05:15:21;;;;;;;;;;;;;;;;;;6204186;28;19977;-67
2023/08/13 05:18:21;;;;;;;;;;;;;;;;;;6195369;28;21366;-67
2023/08/13 05:21:21;;;;;;;;;;;;;;;;;;6185303;28;20399;-66
2023/08/13 05:24:21;;;;;;;;;;;;;;;;;;6183875;28;20288;-67
2023/08/13 05:27:21;;;;;;;;;;;;;;;;;;6184845;28;19918;-71
2023/08/13 05:30:21;;;;;;;;;;;;;;;;;;6186224;28;19922;-68
2023/08/13 05:33:21;;;;;;;;;;;;;;;;;;6184307;28;20102;-67
2023/08/13 05:36:21;;;;;;;;;;;;;;;;;;6181508;28;19910;-67
2023/08/13 05:39:22;;;;;;;;;;;;;;;;;;6187018;28;19925;-68
2023/08/13 05:42:22;;;;;;;;;;;;;;;;;;6193944;28;19918;-67
2023/08/13 05:45:22;;;;;;;;;;;;;;;;;;6184106;28;19909;-68
2023/08/13 05:48:22;;;;;;;;;;;;;;;;;;6187969;28;19954;-67
2023/08/13 05:51:22;;;;;;;;;;;;;;;;;;6184801;28;20446;-67
2023/08/13 05:54:23;;;;;;;;;;;;;;;;;;6187942;28;19917;-67
2023/08/13 05:57:23;;;;;;;;;;;;;;;;;;6178734;28;20387;-67
2023/08/13 06:00:23;;;;;;;;;;;;;;;;;;6187307;28;19917;-68
2023/08/13 06:03:23;;;;;;;;;;;;;;;;;;6182585;28;19925;-68
2023/08/13 06:06:23;;;;;;;;;;;;;;;;;;6182389;28;20066;-68
2023/08/13 06:09:23;;;;;;;;;;;;;;;;;;6197008;28;20221;-73
2023/08/13 06:12:23;;;;;;;;;;;;;;;;;;6194312;28;19993;-68
2023/08/13 06:15:24;;;;;;;;;;;;;;;;;;6199786;28;19956;-68
2023/08/13 06:18:24;;;;;;;;;;;;;;;;;;6213263;28;20012;-68
2023/08/13 06:21:25;;;;;;;;;;;;;;;;;;6172010;28;19994;-68
2023/08/13 06:24:25;;;;;;;;;;;;;;;;;;6186748;28;19910;-68
2023/08/13 06:27:25;;;;;;;;;;;;;;;;;;6201706;28;19916;-69
2023/08/13 06:30:25;;;;;;;;;;;;;;;;;;6201666;28;19943;-69
2023/08/13 06:33:25;;;;;;;;;;;;;;;;;;6196969;28;19910;-69
2023/08/13 06:36:26;;;;;;;;;;;;;;;;;;6209873;28;19913;-68
2023/08/13 06:39:26;;;;;;;;;;;;;;;;;;6192469;28;20288;-68
2023/08/13 06:42:26;;;;;;;;;;;;;;;;;;6192072;28;19948;-68
2023/08/13 06:45:27;;;;;;;;;;;;;;;;;;6179633;28;19949;-68
2023/08/13 06:48:27;;;;;;;;;;;;;;;;;;6186371;28;19944;-67
2023/08/13 06:51:27;;;;;;;;;;;;;;;;;;6190481;28;19953;-68
2023/08/13 06:54:27;;;;;;;;;;;;;;;;;;6185013;28;20455;-68
2023/08/13 06:57:27;;;;;;;;;;;;;;;;;;6198500;28;19936;-68
2023/08/13 07:00:27;;;;;;;;;;;;;;;;;;6194745;28;19910;-68
2023/08/13 07:03:27;;;;;;;;;;;;;;;;;;6194908;28;19910;-68
2023/08/13 07:06:28;;;;;;;;;;;;;;;;;;6198380;28;19909;-68
2023/08/13 07:09:34;;;;;;;;;;;;;;;;;;6067725;28;9999890;-68
2023/08/13 07:12:35;;;;;;;;;;;;;;;;;;6177998;28;20455;-68
2023/08/13 07:15:35;;;;;;;;;;;;;;;;;;6197775;28;19910;-69
2023/08/13 07:18:35;;;;;;;;;;;;;;;;;;6206438;28;19980;-67
2023/08/13 07:21:36;;;;;;;;;;;;;;;;;;6201035;28;20028;-67
2023/08/13 07:24:36;;;;;;;;;;;;;;;;;;6198415;28;20398;-67
2023/08/13 07:27:36;;;;;;;;;;;;;;;;;;6195739;28;19917;-68
2023/08/13 07:30:36;;;;;;;;;;;;;;;;;;6201963;28;19924;-67
2023/08/13 07:33:36;;;;;;;;;;;;;;;;;;6192443;28;19928;-67
2023/08/13 07:36:37;;;;;;;;;;;;;;;;;;6191628;28;19918;-68
2023/08/13 07:39:38;;;;;;;;;;;;;;;;;;6194123;28;19925;-67
2023/08/13 07:42:38;;;;;;;;;;;;;;;;;;6195813;28;19997;-67
2023/08/13 07:45:39;;;;;;;;;;;;;;;;;;6205011;28;19910;-69
2023/08/13 07:48:39;;;;;;;;;;;;;;;;;;6189981;28;19909;-69
2023/08/13 07:51:39;;;;;;;;;;;;;;;;;;6205531;28;20384;-68
2023/08/13 07:54:39;;;;;;;;;;;;;;;;;;6183287;28;20324;-68
2023/08/13 07:57:39;;;;;;;;;;;;;;;;;;6203662;28;19921;-69
2023/08/13 08:00:39;;;;;;;;;;;;;;;;;;6193374;28;20387;-68
2023/08/13 08:03:41;;;;;;;;;;;;;;;;;;6200890;28;19942;-67
2023/08/13 08:06:41;;;;;;;;;;;;;;;;;;6209450;28;19919;-73
2023/08/13 08:09:41;;;;;;;;;;;;;;;;;;6203065;28;20344;-68
2023/08/13 08:12:41;;;;;;;;;;;;;;;;;;6198937;28;19936;-68
2023/08/13 08:15:41;;;;;;;;;;;;;;;;;;6199520;28;20467;-72
2023/08/13 08:18:42;;;;;;;;;;;;;;;;;;6185164;28;19924;-73
2023/08/13 08:21:42;;;;;;;;;;;;;;;;;;6193458;28;19920;-74
2023/08/13 08:24:42;;;;;;;;;;;;;;;;;;6204611;28;19920;-72
2023/08/13 08:27:42;;;;;;;;;;;;;;;;;;6176200;28;19914;-72
2023/08/13 08:30:42;;;;;;;;;;;;;;;;;;6187929;28;19921;-72
2023/08/13 08:33:42;;;;;;;;;;;;;;;;;;6180067;28;20459;-72
2023/08/13 08:36:42;;;;;;;;;;;;;;;;;;6182063;28;19914;-72
2023/08/13 08:39:42;;;;;;;;;;;;;;;;;;6204323;28;20462;-73
2023/08/13 08:42:42;;;;;;;;;;;;;;;;;;6209972;28;20430;-74
2023/08/13 08:45:43;;;;;;;;;;;;;;;;;;6174469;28;19921;-74
2023/08/13 08:48:43;;;;;;;;;;;;;;;;;;6183841;28;19913;-77
2023/08/13 08:51:43;;;;;;;;;;;;;;;;;;6180919;28;19917;-72
2023/08/13 08:54:43;;;;;;;;;;;;;;;;;;6187996;28;19913;-66
2023/08/13 08:57:43;;;;;;;;;;;;;;;;;;6188740;28;19961;-66
2023/08/13 09:00:43;;;;;;;;;;;;;;;;;;6183260;28;20020;-66
2023/08/13 09:03:43;;;;;;;;;;;;;;;;;;6180348;28;19972;-66
2023/08/13 09:06:43;;;;;;;;;;;;;;;;;;6182817;28;19925;-66
2023/08/13 09:09:46;;;;;;;;;;;;;;;;;;6180841;28;19928;-67
2023/08/13 09:12:46;;;;;;;;;;;;;;;;;;6183414;28;19917;-70
2023/08/13 09:15:46;;;;;;;;;;;;;;;;;;6178473;28;19913;-71
2023/08/13 09:18:46;;;;;;;;;;;;;;;;;;6181725;28;20004;-71
2023/08/13 09:21:47;;;;;;;;;;;;;;;;;;6188799;28;20280;-71
2023/08/13 09:24:48;;;;;;;;;;;;;;;;;;6187788;28;19921;-71
2023/08/13 09:27:48;;;;;;;;;;;;;;;;;;6178516;28;20055;-70
2023/08/13 09:30:48;;;;;;;;;;;;;;;;;;6180543;28;20050;-77
2023/08/13 09:33:48;;;;;;;;;;;;;;;;;;5850884;28;9999850;-70
2023/08/13 09:36:49;;;;;;;;;;;;;;;;;;6194810;28;19913;-73
2023/08/13 09:39:49;;;;;;;;;;;;;;;;;;6193171;28;19975;-72
2023/08/13 09:42:49;;;;;;;;;;;;;;;;;;6193769;28;19924;-73
2023/08/13 09:45:49;;;;;;;;;;;;;;;;;;6191900;28;19906;-71
2023/08/13 09:48:49;;;;;;;;;;;;;;;;;;6197564;28;19960;-72
2023/08/13 09:51:50;;;;;;;;;;;;;;;;;;6218772;28;19909;-71
2023/08/13 09:54:50;;;;;;;;;;;;;;;;;;6210278;28;20009;-72
2023/08/13 09:57:50;;;;;;;;;;;;;;;;;;6192268;28;19921;-72
2023/08/13 10:00:50;;;;;;;;;;;;;;;;;;6196579;28;19906;-72
2023/08/13 10:03:50;;;;;;;;;;;;;;;;;;6179558;28;19906;-72
2023/08/13 10:06:50;;;;;;;;;;;;;;;;;;6197713;28;19931;-72
2023/08/13 10:09:50;;;;;;;;;;;;;;;;;;6196883;28;20012;-72
2023/08/13 10:12:51;;;;;;;;;;;;;;;;;;6197296;28;19949;-73
2023/08/13 10:15:51;;;;;;;;;;;;;;;;;;6206104;28;19988;-73
2023/08/13 10:18:51;;;;;;;;;;;;;;;;;;6222329;28;19932;-72
2023/08/13 10:21:51;;;;;;;;;;;;;;;;;;6222597;28;19906;-74
2023/08/13 10:24:51;;;;;;;;;;;;;;;;;;6209335;28;19910;-74
2023/08/13 10:27:52;;;;;;;;;;;;;;;;;;6197636;28;19953;-75
2023/08/13 10:30:52;;;;;;;;;;;;;;;;;;6196967;28;19914;-73
2023/08/13 10:33:52;;;;;;;;;;;;;;;;;;6196071;28;19925;-73
2023/08/13 10:36:52;;;;;;;;;;;;;;;;;;6196094;28;19997;-73
2023/08/13 10:39:52;;;;;;;;;;;;;;;;;;6196200;28;20382;-73
2023/08/13 10:42:52;;;;;;;;;;;;;;;;;;6210642;28;19960;-74
2023/08/13 10:45:52;;;;;;;;;;;;;;;;;;6197103;28;19917;-74
2023/08/13 10:48:52;;;;;;;;;;;;;;;;;;6197575;28;20004;-73
2023/08/13 10:51:53;;;;;;;;;;;;;;;;;;6196299;28;20360;-74
2023/08/13 10:54:53;;;;;;;;;;;;;;;;;;6195246;28;20378;-74
2023/08/13 10:57:53;;;;;;;;;;;;;;;;;;6198668;28;19930;-73
2023/08/13 11:00:53;;;;;;;;;;;;;;;;;;6212531;28;19921;-73
2023/08/13 11:03:53;;;;;;;;;;;;;;;;;;6204285;28;19917;-73
2023/08/13 11:06:54;;;;;;;;;;;;;;;;;;6203650;28;19921;-73
2023/08/13 11:09:55;;;;;;;;;;;;;;;;;;6184058;28;19929;-73
2023/08/13 11:12:55;;;;;;;;;;;;;;;;;;6201044;28;20244;-75
2023/08/13 11:15:55;;;;;;;;;;;;;;;;;;6198135;28;19921;-75
2023/08/13 11:18:56;;;;;;;;;;;;;;;;;;6201379;28;19945;-73
2023/08/13 11:21:56;;;;;;;;;;;;;;;;;;6210265;28;20312;-75
2023/08/13 11:24:56;;;;;;;;;;;;;;;;;;6200515;28;19906;-74
2023/08/13 11:27:56;;;;;;;;;;;;;;;;;;6201018;28;19913;-75
2023/08/13 11:30:56;;;;;;;;;;;;;;;;;;6203692;28;19956;-75
2023/08/13 11:33:56;;;;;;;;;;;;;;;;;;6182431;28;20004;-75
2023/08/13 11:36:56;;;;;;;;;;;;;;;;;;6197167;28;19956;-75
2023/08/13 11:39:56;;;;;;;;;;;;;;;;;;6197565;28;20036;-74
2023/08/13 11:42:57;;;;;;;;;;;;;;;;;;6197398;28;19949;-74
2023/08/13 11:45:57;;;;;;;;;;;;;;;;;;6196019;28;19913;-75
2023/08/13 11:48:57;;;;;;;;;;;;;;;;;;6198424;28;19906;-75
2023/08/13 11:51:57;;;;;;;;;;;;;;;;;;6200188;28;19921;-75
2023/08/13 11:54:58;;;;;;;;;;;;;;;;;;6198918;28;19916;-75
2023/08/13 11:57:59;;;;;;;;;;;;;;;;;;6206293;28;19921;-75
2023/08/13 12:00:59;;;;;;;;;;;;;;;;;;6198739;28;19918;-74
2023/08/13 12:03:59;;;;;;;;;;;;;;;;;;6181395;28;19917;-75
2023/08/13 12:07:04;;;;;;;;;;;;;;;;;;5850069;28;10000019;-75
2023/08/13 12:10:04;;;;;;;;;;;;;;;;;;6196771;28;19994;-78
2023/08/13 12:13:05;;;;;;;;;;;;;;;;;;6188610;28;20375;-74
2023/08/13 12:16:05;;;;;;;;;;;;;;;;;;6187451;28;20028;-74
2023/08/13 12:19:08;;;;;;;;;;;;;;;;;;6180700;28;19920;-74
2023/08/13 12:22:08;;;;;;;;;;;;;;;;;;6173095;28;19928;-74
2023/08/13 12:25:08;;;;;;;;;;;;;;;;;;6170722;28;19953;-73
2023/08/13 12:28:09;;;;;;;;;;;;;;;;;;6183560;28;20005;-75
2023/08/13 12:31:09;;;;;;;;;;;;;;;;;;6176855;28;20261;-76
2023/08/13 12:34:09;;;;;;;;;;;;;;;;;;6183754;28;19913;-73
2023/08/13 12:37:09;;;;;;;;;;;;;;;;;;6180263;28;20013;-74
2023/08/13 12:40:10;;;;;;;;;;;;;;;;;;6167891;28;19935;-76
2023/08/13 12:43:10;;;;;;;;;;;;;;;;;;6182935;28;19913;-75
2023/08/13 12:46:10;;;;;;;;;;;;;;;;;;6185727;28;19917;-75
2023/08/13 12:49:10;;;;;;;;;;;;;;;;;;6194344;28;19914;-74
2023/08/13 12:52:10;;;;;;;;;;;;;;;;;;6189422;28;19936;-75
2023/08/13 12:55:10;;;;;;;;;;;;;;;;;;6191963;28;19917;-75
2023/08/13 12:58:10;;;;;;;;;;;;;;;;;;6194204;28;20388;-75
2023/08/13 13:01:10;;;;;;;;;;;;;;;;;;6203831;28;19975;-75
2023/08/13 13:04:12;;;;;;;;;;;;;;;;;;6191481;28;19930;-75
2023/08/13 13:07:12;;;;;;;;;;;;;;;;;;6191006;28;20000;-75
2023/08/13 13:10:12;;;;;;;;;;;;;;;;;;6185209;28;19921;-76
2023/08/13 13:13:12;;;;;;;;;;;;;;;;;;6182313;28;19914;-76
2023/08/13 13:16:12;;;;;;;;;;;;;;;;;;6176927;28;19909;-76
2023/08/13 13:19:12;;;;;;;;;;;;;;;;;;6182822;28;19980;-75
2023/08/13 13:22:13;;;;;;;;;;;;;;;;;;6181255;28;19913;-75
2023/08/13 13:25:14;;;;;;;;;;;;;;;;;;6182452;28;19925;-75
2023/08/13 13:28:14;;;;;;;;;;;;;;;;;;6179612;28;20406;-74
2023/08/13 13:31:14;;;;;;;;;;;;;;;;;;6180928;28;19922;-73
2023/08/13 13:34:14;;;;;;;;;;;;;;;;;;6193957;28;19918;-77
2023/08/13 13:37:14;;;;;;;;;;;;;;;;;;6186258;28;19917;-74
2023/08/13 13:40:14;;;;;;;;;;;;;;;;;;6187915;28;19917;-74
2023/08/13 13:43:14;;;;;;;;;;;;;;;;;;6198809;28;19913;-76
2023/08/13 13:46:14;;;;;;;;;;;;;;;;;;6193876;28;19913;-74
2023/08/13 13:49:14;;;;;;;;;;;;;;;;;;6193850;28;19910;-74
2023/08/13 13:52:15;;;;;;;;;;;;;;;;;;6183559;28;19936;-74
2023/08/13 13:55:15;;;;;;;;;;;;;;;;;;6182552;28;20007;-75
2023/08/13 13:58:15;;;;;;;;;;;;;;;;;;6176199;28;20031;-75
2023/08/13 14:01:15;;;;;;;;;;;;;;;;;;6195953;28;19910;-74
2023/08/13 14:04:15;;;;;;;;;;;;;;;;;;6208505;28;20220;-75
2023/08/13 14:07:15;;;;;;;;;;;;;;;;;;6187716;28;19910;-75
2023/08/13 14:10:15;;;;;;;;;;;;;;;;;;6193529;28;19927;-75
2023/08/13 14:13:16;;;;;;;;;;;;;;;;;;6210297;28;19987;-75
2023/08/13 14:16:16;;;;;;;;;;;;;;;;;;6185380;28;19916;-75
2023/08/13 14:19:16;;;;;;;;;;;;;;;;;;6181397;28;19917;-75
2023/08/13 14:22:16;;;;;;;;;;;;;;;;;;6177353;28;19924;-75
2023/08/13 14:25:16;;;;;;;;;;;;;;;;;;6178704;28;20005;-78
2023/08/13 14:28:16;;;;;;;;;;;;;;;;;;6182042;28;19914;-75
2023/08/13 14:31:16;;;;;;;;;;;;;;;;;;6176839;28;19917;-75
2023/08/13 14:34:17;;;;;;;;;;;;;;;;;;6176471;28;19964;-75
2023/08/13 14:37:17;;;;;;;;;;;;;;;;;;6181297;28;19913;-77
2023/08/13 14:40:17;;;;;;;;;;;;;;;;;;6183307;28;20007;-77
2023/08/13 14:43:17;;;;;;;;;;;;;;;;;;6180260;28;19914;-77
2023/08/13 14:46:19;;;;;;;;;;;;;;;;;;6207878;28;19913;-77
2023/08/13 14:49:19;;;;;;;;;;;;;;;;;;6203541;28;19913;-80
2023/08/13 14:52:19;;;;;;;;;;;;;;;;;;6188709;28;19936;-77
2023/08/13 14:55:20;;;;;;;;;;;;;;;;;;6184654;28;20402;-77
2023/08/13 14:58:21;;;;;;;;;;;;;;;;;;6160058;28;19930;-75
2023/08/13 15:01:21;;;;;;;;;;;;;;;;;;6188739;28;19914;-74
2023/08/13 15:04:21;;;;;;;;;;;;;;;;;;6189089;28;19917;-73
2023/08/13 15:07:21;;;;;;;;;;;;;;;;;;6192905;28;19948;-74
2023/08/13 15:10:21;;;;;;;;;;;;;;;;;;6192991;28;19913;-73
2023/08/13 15:13:21;;;;;;;;;;;;;;;;;;6186360;28;20328;-76
2023/08/13 15:16:22;;;;;;;;;;;;;;;;;;6190297;28;20353;-76
2023/08/13 15:19:22;;;;;;;;;;;;;;;;;;6193877;28;19913;-75
2023/08/13 15:22:23;;;;;;;;;;;;;;;;;;6201483;28;19910;-74
2023/08/13 15:25:23;;;;;;;;;;;;;;;;;;6193467;28;19959;-75
2023/08/13 15:28:24;;;;;;;;;;;;;;;;;;6182011;28;19921;-75
2023/08/13 15:31:24;;;;;;;;;;;;;;;;;;6185123;28;19918;-80
2023/08/13 15:34:27;;;;;;;;;;;;;;;;;;6194594;28;19921;-73
2023/08/13 15:37:27;;;;;;;;;;;;;;;;;;6195208;28;19913;-74
2023/08/13 15:40:27;;;;;;;;;;;;;;;;;;6189959;28;19937;-74
2023/08/13 15:43:27;;;;;;;;;;;;;;;;;;6196639;28;20648;-74
2023/08/13 15:46:27;;;;;;;;;;;;;;;;;;6194457;28;20379;-69
2023/08/13 15:49:27;;;;;;;;;;;;;;;;;;6198630;28;20275;-73
2023/08/13 15:52:28;;;;;;;;;;;;;;;;;;6196112;28;20423;-74
2023/08/13 15:55:28;;;;;;;;;;;;;;;;;;6195442;28;19952;-74
2023/08/13 15:58:28;;;;;;;;;;;;;;;;;;6198150;28;19977;-74
2023/08/13 16:01:29;;;;;;;;;;;;;;;;;;6194741;28;19948;-74
2023/08/13 16:04:29;;;;;;;;;;;;;;;;;;6184824;28;20007;-74
2023/08/13 16:07:29;;;;;;;;;;;;;;;;;;6185303;28;19921;-73
2023/08/13 16:10:30;;;;;;;;;;;;;;;;;;6183872;28;21938;-73
2023/08/13 16:13:30;;;;;;;;;;;;;;;;;;6189599;28;19918;-75
2023/08/13 16:16:30;;;;;;;;;;;;;;;;;;6185771;28;19917;-74
2023/08/13 16:19:30;;;;;;;;;;;;;;;;;;6166289;28;19910;-74
2023/08/13 16:22:31;;;;;;;;;;;;;;;;;;6181322;28;19972;-73
2023/08/13 16:25:31;;;;;;;;;;;;;;;;;;6186458;28;20462;-73
2023/08/13 16:28:31;;;;;;;;;;;;;;;;;;6194362;28;19914;-73
2023/08/13 16:31:31;;;;;;;;;;;;;;;;;;6193394;28;20449;-73
2023/08/13 16:34:31;;;;;;;;;;;;;;;;;;6177252;28;19914;-72
2023/08/13 16:37:32;;;;;;;;;;;;;;;;;;6182978;28;19929;-74
2023/08/13 16:40:32;;;;;;;;;;;;;;;;;;6179335;28;20495;-72
2023/08/13 16:43:32;;;;;;;;;;;;;;;;;;6183068;28;19917;-73
2023/08/13 16:46:32;;;;;;;;;;;;;;;;;;6189722;28;19934;-73
2023/08/13 16:49:33;;;;;;;;;;;;;;;;;;6188678;28;19980;-73
2023/08/13 16:52:33;;;;;;;;;;;;;;;;;;6194634;28;19924;-73
2023/08/13 16:55:33;;;;;;;;;;;;;;;;;;6185278;28;19914;-73
2023/08/13 16:58:33;;;;;;;;;;;;;;;;;;6187492;28;20032;-73
2023/08/13 17:01:33;;;;;;;;;;;;;;;;;;6182810;28;19952;-73
2023/08/13 17:04:33;;;;;;;;;;;;;;;;;;6183187;28;19917;-74
2023/08/13 17:07:33;;;;;;;;;;;;;;;;;;6171211;28;19964;-73
2023/08/13 17:10:34;;;;;;;;;;;;;;;;;;6183086;28;19918;-74
2023/08/13 17:13:34;;;;;;;;;;;;;;;;;;6167610;28;19924;-73
2023/08/13 17:16:34;;;;;;;;;;;;;;;;;;6179075;28;19991;-74
2023/08/13 17:19:34;;;;;;;;;;;;;;;;;;6183425;28;20312;-73
2023/08/13 17:22:34;;;;;;;;;;;;;;;;;;6181131;28;19917;-76
2023/08/13 17:25:34;;;;;;;;;;;;;;;;;;6184599;28;19917;-73
2023/08/13 17:28:35;;;;;;;;;;;;;;;;;;6183508;28;19918;-73
2023/08/13 17:31:35;;;;;;;;;;;;;;;;;;6182066;28;20000;-74
2023/08/13 17:34:35;;;;;;;;;;;;;;;;;;6179435;28;19922;-74
2023/08/13 17:37:35;;;;;;;;;;;;;;;;;;6193634;28;19913;-72
2023/08/13 17:40:36;;;;;;;;;;;;;;;;;;6192841;28;20342;-72
2023/08/13 17:43:36;;;;;;;;;;;;;;;;;;6193507;28;20295;-74
2023/08/13 17:46:36;;;;;;;;;;;;;;;;;;6205459;28;19916;-72
2023/08/13 17:49:36;;;;;;;;;;;;;;;;;;6212253;28;19924;-73
2023/08/13 17:52:36;;;;;;;;;;;;;;;;;;6184483;28;20439;-72
2023/08/13 17:55:37;;;;;;;;;;;;;;;;;;6178627;28;19998;-72
2023/08/13 17:58:37;;;;;;;;;;;;;;;;;;6181782;28;19991;-72
2023/08/13 18:01:37;;;;;;;;;;;;;;;;;;6188001;28;20026;-72
2023/08/13 18:04:37;;;;;;;;;;;;;;;;;;6190546;28;19916;-73
2023/08/13 18:07:37;;;;;;;;;;;;;;;;;;6177498;28;19998;-73
2023/08/13 18:10:37;;;;;;;;;;;;;;;;;;6181200;28;19929;-78
2023/08/13 18:13:39;;;;;;;;;;;;;;;;;;6180082;28;19975;-73
2023/08/13 18:16:39;;;;;;;;;;;;;;;;;;6187516;28;19921;-72
2023/08/13 18:19:39;;;;;;;;;;;;;;;;;;6191209;28;19913;-72
2023/08/13 18:22:42;;;;;;;;;;;;;;;;;;6189065;28;19924;-72
2023/08/13 18:25:42;;;;;;;;;;;;;;;;;;6191165;28;20032;-72
2023/08/13 18:28:42;;;;;;;;;;;;;;;;;;6203722;28;20287;-71
2023/08/13 18:31:42;;;;;;;;;;;;;;;;;;6191039;28;20336;-71
2023/08/13 18:34:45;;;;;;;;;;;;;;;;;;6170849;28;20351;-72
2023/08/13 18:37:45;;;;;;;;;;;;;;;;;;6196275;28;19936;-72
2023/08/13 18:40:45;;;;;;;;;;;;;;;;;;6163031;28;19913;-71
2023/08/13 18:43:45;;;;;;;;;;;;;;;;;;6178689;28;20298;-71
2023/08/13 18:46:45;;;;;;;;;;;;;;;;;;6181422;28;20270;-71
2023/08/13 18:49:46;;;;;;;;;;;;;;;;;;6184703;28;20032;-72
2023/08/13 18:52:46;;;;;;;;;;;;;;;;;;6180676;28;19995;-77
2023/08/13 18:55:47;;;;;;;;;;;;;;;;;;6191256;28;19914;-72
2023/08/13 18:58:47;;;;;;;;;;;;;;;;;;6190890;28;19922;-72
2023/08/13 19:01:47;;;;;;;;;;;;;;;;;;6191574;28;19913;-72
2023/08/13 19:04:47;;;;;;;;;;;;;;;;;;6182928;28;20391;-71
2023/08/13 19:07:47;;;;;;;;;;;;;;;;;;6181128;28;19914;-71
2023/08/13 19:10:47;;;;;;;;;;;;;;;;;;6179203;28;19957;-72
2023/08/13 19:13:47;;;;;;;;;;;;;;;;;;6163322;28;19924;-72
2023/08/13 19:16:48;;;;;;;;;;;;;;;;;;6179150;28;20197;-71
2023/08/13 19:19:48;;;;;;;;;;;;;;;;;;6194432;28;19914;-71
2023/08/13 19:22:48;;;;;;;;;;;;;;;;;;6200523;28;20383;-72
2023/08/13 19:25:48;;;;;;;;;;;;;;;;;;6188228;28;19914;-65
2023/08/13 19:28:48;;;;;;;;;;;;;;;;;;6184399;28;20376;-62
2023/08/13 19:31:48;;;;;;;;;;;;;;;;;;6184557;28;20395;-63
2023/08/13 19:34:49;;;;;;;;;;;;;;;;;;6185161;28;19996;-63
2023/08/13 19:37:49;;;;;;;;;;;;;;;;;;6185706;28;20311;-62
2023/08/13 19:40:49;;;;;;;;;;;;;;;;;;6183023;28;20343;-62
2023/08/13 19:43:49;;;;;;;;;;;;;;;;;;6186298;28;19949;-63
2023/08/13 19:46:49;;;;;;;;;;;;;;;;;;6180943;28;19918;-63
2023/08/13 19:49:49;;;;;;;;;;;;;;;;;;6187863;28;19918;-63
2023/08/13 19:52:49;;;;;;;;;;;;;;;;;;6187900;28;19925;-63
2023/08/13 19:55:49;;;;;;;;;;;;;;;;;;6184540;28;20391;-63
2023/08/13 19:58:50;;;;;;;;;;;;;;;;;;6181794;28;19926;-63
2023/08/13 20:01:50;;;;;;;;;;;;;;;;;;6184614;28;19921;-62
2023/08/13 20:04:50;;;;;;;;;;;;;;;;;;6182505;28;19965;-63
2023/08/13 20:07:50;;;;;;;;;;;;;;;;;;6183221;28;19916;-63
2023/08/13 20:10:50;;;;;;;;;;;;;;;;;;6183415;28;20003;-63
2023/08/13 20:13:51;;;;;;;;;;;;;;;;;;6185892;28;20388;-64
2023/08/13 20:16:51;;;;;;;;;;;;;;;;;;6183107;28;20052;-65
2023/08/13 20:19:51;;;;;;;;;;;;;;;;;;6188524;28;20089;-63
2023/08/13 20:22:52;;;;;;;;;;;;;;;;;;6189926;28;19920;-64
2023/08/13 20:25:52;;;;;;;;;;;;;;;;;;6181992;28;19961;-63
2023/08/13 20:28:52;;;;;;;;;;;;;;;;;;6181546;28;20364;-63
2023/08/13 20:31:52;;;;;;;;;;;;;;;;;;6181345;28;19917;-65